createdAt,value
2016-12-04T00:00:53.755Z,54.35
2016-12-04T00:01:54.088Z,54.54
2016-12-04T00:02:53.812Z,54.93
2016-12-04T00:03:54.145Z,54.44
2016-12-04T00:04:54.161Z,53.67
2016-12-04T00:05:53.897Z,53.87
2016-12-04T00:06:53.922Z,53.77
2016-12-04T00:07:53.947Z,53.77
2016-12-04T00:08:54.281Z,53.96
2016-12-04T00:09:54.000Z,53.58
2016-12-04T00:10:54.338Z,53.77
2016-12-04T00:11:54.054Z,53.87
2016-12-04T00:12:54.084Z,53.96
2016-12-04T00:13:54.419Z,53.67
2016-12-04T00:14:54.138Z,53.58
2016-12-04T00:15:54.473Z,54.44
2016-12-04T00:16:54.493Z,53.96
2016-12-04T00:17:54.529Z,54.16
2016-12-04T00:18:54.548Z,54.44
2016-12-04T00:19:54.595Z,53.87
2016-12-04T00:20:54.304Z,53.67
2016-12-04T00:21:54.332Z,53.58
2016-12-04T00:22:54.665Z,53.77
2016-12-04T00:23:54.690Z,53.87
2016-12-04T00:24:54.712Z,53.67
2016-12-04T00:25:54.743Z,53.39
2016-12-04T00:26:54.467Z,53.67
2016-12-04T00:27:54.800Z,53.19
2016-12-04T00:28:54.527Z,53.96
2016-12-04T00:29:54.545Z,53.29
2016-12-04T00:30:54.568Z,53.48
2016-12-04T00:31:54.907Z,53.77
2016-12-04T00:32:54.640Z,53.77
2016-12-04T00:33:54.951Z,54.35
2016-12-04T00:34:54.982Z,54.74
2016-12-04T00:35:55.037Z,54.16
2016-12-04T00:36:54.743Z,54.16
2016-12-04T00:37:55.064Z,54.16
2016-12-04T00:38:54.793Z,54.35
2016-12-04T00:39:55.133Z,53.96
2016-12-04T00:40:55.158Z,54.64
2016-12-04T00:41:55.184Z,54.16
2016-12-04T00:42:55.208Z,54.06
2016-12-04T00:43:55.245Z,54.16
2016-12-04T00:44:54.959Z,54.25
2016-12-04T00:45:54.983Z,54.44
2016-12-04T00:46:55.019Z,54.25
2016-12-04T00:47:55.044Z,53.87
2016-12-04T00:48:55.077Z,53.39
2016-12-04T00:49:55.102Z,53.39
2016-12-04T00:50:55.429Z,53.65
2016-12-04T00:51:55.460Z,53.39
2016-12-04T00:52:55.488Z,52.81
2016-12-04T00:53:55.521Z,52.91
2016-12-04T00:54:55.539Z,52.91
2016-12-04T00:55:55.282Z,53.09
2016-12-04T00:56:55.289Z,53.77
2016-12-04T00:57:55.616Z,53
2016-12-04T00:58:55.650Z,52.52
2016-12-04T00:59:55.389Z,53.17
2016-12-04T01:00:55.700Z,52.97
2016-12-04T01:01:55.431Z,52.13
2016-12-04T01:02:55.764Z,52.33
2016-12-04T01:03:55.489Z,52.01
2016-12-04T01:04:55.818Z,52.91
2016-12-04T01:05:55.543Z,52.59
2016-12-04T01:06:55.563Z,52.59
2016-12-04T01:07:55.908Z,53.09
2016-12-04T01:08:55.933Z,53.07
2016-12-04T01:09:55.961Z,52.69
2016-12-04T01:10:55.678Z,52.78
2016-12-04T01:11:55.711Z,52.69
2016-12-04T01:12:56.041Z,52.49
2016-12-04T01:13:56.073Z,52.4
2016-12-04T01:14:55.789Z,52.4
2016-12-04T01:15:56.123Z,52.59
2016-12-04T01:16:55.842Z,52.59
2016-12-04T01:17:56.175Z,52.69
2016-12-04T01:18:55.896Z,52.59
2016-12-04T01:19:55.936Z,53.17
2016-12-04T01:20:55.953Z,52.87
2016-12-04T01:21:55.982Z,53.36
2016-12-04T01:22:56.311Z,52.59
2016-12-04T01:23:56.031Z,52.4
2016-12-04T01:24:56.056Z,52.78
2016-12-04T01:25:56.401Z,52.69
2016-12-04T01:26:56.413Z,52.97
2016-12-04T01:27:56.454Z,52.49
2016-12-04T01:28:56.171Z,52.49
2016-12-04T01:29:56.517Z,52.87
2016-12-04T01:30:56.223Z,53.07
2016-12-04T01:31:56.561Z,52.87
2016-12-04T01:32:56.278Z,53.17
2016-12-04T01:33:56.658Z,52.69
2016-12-04T01:34:56.335Z,52.78
2016-12-04T01:35:56.356Z,53.27
2016-12-04T01:36:56.688Z,53.65
2016-12-04T01:37:56.721Z,53.55
2016-12-04T01:38:56.442Z,53.07
2016-12-04T01:39:56.471Z,52.69
2016-12-04T01:40:56.801Z,52.87
2016-12-04T01:41:56.520Z,53.27
2016-12-04T01:42:56.553Z,52.87
2016-12-04T01:43:56.898Z,52.87
2016-12-04T01:44:56.907Z,53.74
2016-12-04T01:45:56.647Z,53.74
2016-12-04T01:46:56.969Z,53.45
2016-12-04T01:47:56.997Z,53.27
2016-12-04T01:48:57.022Z,52.97
2016-12-04T01:49:57.053Z,53.07
2016-12-04T01:50:57.079Z,52.69
2016-12-04T01:51:56.810Z,52.78
2016-12-04T01:52:56.827Z,52.78
2016-12-04T01:53:56.851Z,52.59
2016-12-04T01:54:57.187Z,52.59
2016-12-04T01:55:56.913Z,52.01
2016-12-04T01:56:57.237Z,52.01
2016-12-04T01:57:56.973Z,52.11
2016-12-04T01:58:56.994Z,51.72
2016-12-04T01:59:57.333Z,51.24
2016-12-04T02:00:57.043Z,51.24
2016-12-04T02:01:57.067Z,50.95
2016-12-04T02:02:57.092Z,50.66
2016-12-04T02:03:57.125Z,50.66
2016-12-04T02:04:57.454Z,51.05
2016-12-04T02:05:57.482Z,51.24
2016-12-04T02:06:57.512Z,51.14
2016-12-04T02:07:57.236Z,51.53
2016-12-04T02:08:57.266Z,51.34
2016-12-04T02:09:57.602Z,51.21
2016-12-04T02:10:57.622Z,51.05
2016-12-04T02:11:57.660Z,51.34
2016-12-04T02:12:57.370Z,51.34
2016-12-04T02:13:57.413Z,51.24
2016-12-04T02:14:57.734Z,51.24
2016-12-04T02:15:57.447Z,50.85
2016-12-04T02:16:57.482Z,51.05
2016-12-04T02:17:57.828Z,50.85
2016-12-04T02:18:57.537Z,50.85
2016-12-04T02:19:57.877Z,50.45
2016-12-04T02:20:57.890Z,50.09
2016-12-04T02:21:57.929Z,50.25
2016-12-04T02:22:57.944Z,50.18
2016-12-04T02:23:57.677Z,50.57
2016-12-04T02:24:58.001Z,50.37
2016-12-04T02:25:58.036Z,50.37
2016-12-04T02:26:58.060Z,50.25
2016-12-04T02:27:57.784Z,50.15
2016-12-04T02:28:57.803Z,50.25
2016-12-04T02:29:57.849Z,50.35
2016-12-04T02:30:57.866Z,50.35
2016-12-04T02:31:58.198Z,50.35
2016-12-04T02:32:58.224Z,50.54
2016-12-04T02:33:57.944Z,49.77
2016-12-04T02:34:57.969Z,50.15
2016-12-04T02:35:58.318Z,50.25
2016-12-04T02:36:58.329Z,49.38
2016-12-04T02:37:58.059Z,49.96
2016-12-04T02:38:58.391Z,49.87
2016-12-04T02:39:58.408Z,49.96
2016-12-04T02:40:58.461Z,49.87
2016-12-04T02:41:58.469Z,49.96
2016-12-04T02:42:58.193Z,49.58
2016-12-04T02:43:58.216Z,49.38
2016-12-04T02:44:58.543Z,49
2016-12-04T02:45:58.588Z,49.29
2016-12-04T02:46:58.604Z,49.29
2016-12-04T02:47:58.629Z,49.29
2016-12-04T02:48:58.657Z,49.68
2016-12-04T02:49:58.678Z,49.48
2016-12-04T02:50:58.403Z,49.58
2016-12-04T02:51:58.743Z,49.29
2016-12-04T02:52:58.456Z,49
2016-12-04T02:53:58.797Z,49.1
2016-12-04T02:54:58.518Z,49.19
2016-12-04T02:55:58.542Z,49
2016-12-04T02:56:58.869Z,48.9
2016-12-04T02:57:58.914Z,49.29
2016-12-04T02:58:58.940Z,49.19
2016-12-04T02:59:58.966Z,49.29
2016-12-04T03:00:58.678Z,49
2016-12-04T03:01:58.702Z,49.19
2016-12-04T03:02:58.731Z,49.36
2016-12-04T03:03:58.760Z,48.71
2016-12-04T03:04:58.783Z,48.59
2016-12-04T03:05:59.120Z,48.59
2016-12-04T03:06:59.138Z,48.88
2016-12-04T03:07:58.871Z,48.59
2016-12-04T03:08:59.199Z,48.79
2016-12-04T03:09:59.227Z,48.88
2016-12-04T03:10:59.240Z,48.4
2016-12-04T03:11:58.973Z,48.59
2016-12-04T03:12:59.006Z,48.49
2016-12-04T03:13:59.331Z,48.69
2016-12-04T03:14:59.355Z,48.69
2016-12-04T03:15:59.096Z,48.49
2016-12-04T03:16:59.109Z,48.49
2016-12-04T03:17:59.138Z,48.49
2016-12-04T03:18:59.149Z,48.49
2016-12-04T03:19:59.186Z,48.49
2016-12-04T03:20:59.215Z,48.49
2016-12-04T03:21:59.252Z,48.21
2016-12-04T03:22:59.274Z,48.21
2016-12-04T03:23:59.612Z,48.4
2016-12-04T03:24:59.630Z,48.21
2016-12-04T03:25:59.667Z,48.4
2016-12-04T03:26:59.687Z,48.3
2016-12-04T03:27:59.712Z,48.02
2016-12-04T03:28:59.728Z,47.92
2016-12-04T03:29:59.461Z,48.11
2016-12-04T03:30:59.480Z,48.21
2016-12-04T03:31:59.817Z,48.21
2016-12-04T03:32:59.843Z,48.11
2016-12-04T03:33:59.870Z,47.63
2016-12-04T03:34:59.596Z,47.72
2016-12-04T03:35:59.625Z,47.92
2016-12-04T03:36:59.645Z,48.11
2016-12-04T03:37:59.685Z,47.82
2016-12-04T03:38:59.700Z,48.02
2016-12-04T03:39:59.731Z,48.02
2016-12-04T03:40:59.753Z,48.02
2016-12-04T03:42:00.093Z,47.92
2016-12-04T03:43:00.122Z,48.21
2016-12-04T03:44:00.155Z,47.44
2016-12-04T03:45:00.159Z,47.34
2016-12-04T03:45:59.900Z,47.63
2016-12-04T03:47:00.226Z,47.72
2016-12-04T03:47:59.939Z,47.53
2016-12-04T03:48:59.970Z,47.24
2016-12-04T03:50:00.006Z,47.24
2016-12-04T03:51:00.027Z,47.44
2016-12-04T03:52:00.359Z,47.53
2016-12-04T03:53:00.380Z,47.05
2016-12-04T03:54:00.413Z,47.15
2016-12-04T03:55:00.430Z,47.24
2016-12-04T03:56:00.155Z,47.34
2016-12-04T03:57:00.183Z,47.63
2016-12-04T03:58:00.532Z,47.44
2016-12-04T03:59:00.536Z,47.05
2016-12-04T04:00:00.570Z,47.61
2016-12-04T04:01:00.599Z,47.15
2016-12-04T04:02:00.310Z,47.53
2016-12-04T04:03:00.351Z,47.41
2016-12-04T04:04:00.372Z,47.13
2016-12-04T04:05:00.701Z,47.31
2016-12-04T04:06:00.426Z,47.22
2016-12-04T04:07:00.750Z,47.03
2016-12-04T04:08:00.799Z,47.13
2016-12-04T04:09:00.808Z,47.51
2016-12-04T04:10:00.841Z,47.51
2016-12-04T04:11:00.559Z,47.31
2016-12-04T04:12:00.586Z,47.22
2016-12-04T04:13:00.604Z,46.84
2016-12-04T04:14:00.960Z,46.93
2016-12-04T04:15:00.660Z,47.13
2016-12-04T04:16:00.702Z,47.51
2016-12-04T04:17:00.726Z,46.93
2016-12-04T04:18:01.066Z,46.93
2016-12-04T04:19:01.075Z,47.13
2016-12-04T04:20:00.809Z,47.13
2016-12-04T04:21:00.825Z,47.03
2016-12-04T04:22:00.861Z,47.31
2016-12-04T04:23:00.875Z,47.22
2016-12-04T04:24:00.911Z,47.13
2016-12-04T04:25:00.936Z,47.03
2016-12-04T04:26:01.264Z,47.22
2016-12-04T04:27:00.985Z,47.13
2016-12-04T04:28:01.331Z,47.03
2016-12-04T04:29:01.339Z,46.93
2016-12-04T04:30:01.376Z,47.31
2016-12-04T04:31:01.392Z,46.84
2016-12-04T04:32:01.429Z,46.93
2016-12-04T04:33:01.447Z,46.93
2016-12-04T04:34:01.174Z,46.93
2016-12-04T04:35:01.499Z,46.93
2016-12-04T04:36:01.241Z,46.93
2016-12-04T04:37:01.554Z,46.93
2016-12-04T04:38:01.294Z,47.03
2016-12-04T04:39:01.302Z,46.93
2016-12-04T04:40:01.339Z,47.22
2016-12-04T04:41:01.359Z,46.64
2016-12-04T04:42:01.397Z,46.74
2016-12-04T04:43:01.414Z,46.26
2016-12-04T04:44:01.746Z,46.26
2016-12-04T04:45:01.779Z,46.26
2016-12-04T04:46:01.801Z,46.55
2016-12-04T04:47:01.825Z,46.36
2016-12-04T04:48:01.861Z,46.36
2016-12-04T04:49:01.882Z,46.36
2016-12-04T04:50:01.902Z,46.74
2016-12-04T04:51:01.626Z,46.26
2016-12-04T04:52:01.960Z,46.36
2016-12-04T04:53:01.681Z,46.36
2016-12-04T04:54:01.702Z,46.55
2016-12-04T04:55:01.735Z,46.45
2016-12-04T04:56:02.080Z,46.45
2016-12-04T04:57:01.786Z,46.26
2016-12-04T04:58:01.808Z,46.26
2016-12-04T04:59:02.145Z,46.16
2016-12-04T05:00:01.898Z,46.36
2016-12-04T05:01:02.197Z,46.26
2016-12-04T05:02:02.225Z,46.16
2016-12-04T05:03:01.957Z,46.26
2016-12-04T05:04:01.978Z,46.16
2016-12-04T05:05:02.311Z,46.36
2016-12-04T05:06:02.343Z,46.36
2016-12-04T05:07:02.048Z,46.55
2016-12-04T05:08:02.380Z,46.26
2016-12-04T05:09:02.101Z,46.06
2016-12-04T05:10:02.438Z,46.45
2016-12-04T05:11:02.158Z,46.26
2016-12-04T05:12:02.492Z,46.43
2016-12-04T05:13:02.522Z,46.16
2016-12-04T05:14:02.241Z,46.26
2016-12-04T05:15:02.581Z,46.55
2016-12-04T05:16:02.299Z,46.64
2016-12-04T05:17:02.623Z,46.36
2016-12-04T05:18:02.654Z,46.26
2016-12-04T05:19:02.373Z,46.16
2016-12-04T05:20:02.397Z,46.43
2016-12-04T05:21:02.726Z,46.14
2016-12-04T05:22:02.763Z,45.87
2016-12-04T05:23:02.780Z,46.16
2016-12-04T05:24:02.805Z,46.16
2016-12-04T05:25:02.531Z,45.78
2016-12-04T05:26:02.562Z,46.53
2016-12-04T05:27:02.886Z,46.14
2016-12-04T05:28:02.623Z,46.36
2016-12-04T05:29:02.640Z,45.78
2016-12-04T05:30:02.677Z,46.16
2016-12-04T05:31:02.698Z,45.97
2016-12-04T05:32:02.722Z,46.06
2016-12-04T05:33:02.743Z,45.78
2016-12-04T05:34:03.071Z,45.78
2016-12-04T05:35:03.104Z,45.87
2016-12-04T05:36:03.141Z,45.68
2016-12-04T05:37:03.147Z,45.87
2016-12-04T05:38:03.183Z,45.78
2016-12-04T05:39:02.905Z,45.87
2016-12-04T05:40:03.243Z,45.97
2016-12-04T05:41:03.265Z,45.59
2016-12-04T05:42:03.295Z,45.97
2016-12-04T05:43:03.303Z,45.49
2016-12-04T05:44:03.048Z,45.39
2016-12-04T05:45:03.367Z,45.68
2016-12-04T05:46:03.111Z,45.78
2016-12-04T05:47:03.425Z,45.39
2016-12-04T05:48:03.452Z,45.01
2016-12-04T05:49:03.472Z,45.13
2016-12-04T05:50:03.195Z,45.2
2016-12-04T05:51:03.232Z,45.29
2016-12-04T05:52:03.568Z,45.42
2016-12-04T05:53:03.577Z,45.2
2016-12-04T05:54:03.301Z,45.2
2016-12-04T05:55:03.638Z,45.01
2016-12-04T05:56:03.671Z,45.03
2016-12-04T05:57:03.383Z,44.93
2016-12-04T05:58:03.721Z,44.93
2016-12-04T05:59:03.742Z,45.03
2016-12-04T06:00:03.770Z,44.74
2016-12-04T06:01:03.790Z,44.45
2016-12-04T06:02:03.531Z,44.65
2016-12-04T06:03:03.537Z,44.55
2016-12-04T06:04:03.577Z,44.74
2016-12-04T06:05:03.594Z,44.74
2016-12-04T06:06:03.938Z,44.65
2016-12-04T06:07:03.955Z,44.35
2016-12-04T06:08:03.988Z,44.35
2016-12-04T06:09:04.009Z,44.35
2016-12-04T06:10:03.749Z,44.07
2016-12-04T06:11:03.755Z,44.65
2016-12-04T06:12:03.790Z,43.97
2016-12-04T06:13:03.802Z,44.17
2016-12-04T06:14:04.140Z,44.35
2016-12-04T06:15:03.869Z,44.07
2016-12-04T06:16:03.897Z,44.26
2016-12-04T06:17:04.224Z,44.07
2016-12-04T06:18:04.259Z,44.07
2016-12-04T06:19:03.967Z,44.17
2016-12-04T06:20:04.296Z,44.17
2016-12-04T06:21:04.325Z,44.17
2016-12-04T06:22:04.062Z,44.55
2016-12-04T06:23:04.102Z,44.55
2016-12-04T06:24:04.407Z,44.26
2016-12-04T06:25:04.131Z,43.97
2016-12-04T06:26:04.149Z,43.49
2016-12-04T06:27:04.176Z,43.78
2016-12-04T06:28:04.510Z,43.61
2016-12-04T06:29:04.231Z,43.71
2016-12-04T06:30:04.568Z,43.71
2016-12-04T06:31:04.585Z,43.99
2016-12-04T06:32:04.614Z,43.99
2016-12-04T06:33:04.646Z,43.9
2016-12-04T06:34:04.371Z,43.9
2016-12-04T06:35:04.700Z,43.9
2016-12-04T06:36:04.418Z,43.9
2016-12-04T06:37:04.761Z,43.71
2016-12-04T06:38:04.774Z,43.51
2016-12-04T06:39:04.507Z,43.51
2016-12-04T06:40:04.536Z,43.61
2016-12-04T06:41:04.581Z,43.51
2016-12-04T06:42:04.589Z,43.51
2016-12-04T06:43:04.907Z,43.51
2016-12-04T06:44:04.631Z,43.71
2016-12-04T06:45:04.968Z,43.71
2016-12-04T06:46:05.001Z,43.8
2016-12-04T06:47:05.022Z,43.51
2016-12-04T06:48:04.759Z,43.41
2016-12-04T06:49:04.772Z,43.23
2016-12-04T06:50:05.106Z,43.71
2016-12-04T06:51:04.816Z,43.41
2016-12-04T06:52:04.860Z,43.51
2016-12-04T06:53:04.874Z,43.8
2016-12-04T06:54:04.907Z,42.93
2016-12-04T06:55:04.935Z,43.32
2016-12-04T06:56:04.957Z,43.32
2016-12-04T06:57:04.985Z,43.41
2016-12-04T06:58:05.022Z,43.41
2016-12-04T06:59:05.039Z,43.23
2016-12-04T07:00:05.383Z,43.23
2016-12-04T07:01:05.392Z,43.23
2016-12-04T07:02:05.419Z,43.41
2016-12-04T07:03:05.150Z,43.13
2016-12-04T07:04:05.191Z,43.23
2016-12-04T07:05:05.507Z,43.13
2016-12-04T07:06:05.241Z,43.13
2016-12-04T07:07:05.560Z,43.23
2016-12-04T07:08:05.298Z,42.93
2016-12-04T07:09:05.310Z,43.03
2016-12-04T07:10:05.338Z,42.84
2016-12-04T07:11:05.656Z,43.23
2016-12-04T07:12:05.384Z,43.23
2016-12-04T07:13:05.412Z,42.93
2016-12-04T07:14:05.757Z,43.23
2016-12-04T07:15:05.470Z,42.84
2016-12-04T07:16:05.526Z,43.32
2016-12-04T07:17:05.521Z,42.55
2016-12-04T07:18:05.856Z,42.65
2016-12-04T07:19:05.579Z,42.65
2016-12-04T07:20:05.936Z,42.84
2016-12-04T07:21:05.930Z,43.41
2016-12-04T07:22:05.658Z,43.41
2016-12-04T07:23:05.991Z,42.93
2016-12-04T07:24:05.716Z,42.84
2016-12-04T07:25:05.745Z,43.03
2016-12-04T07:26:05.781Z,43.03
2016-12-04T07:27:06.091Z,43.03
2016-12-04T07:28:06.123Z,42.65
2016-12-04T07:29:06.155Z,43.13
2016-12-04T07:30:06.186Z,42.74
2016-12-04T07:31:06.200Z,42.84
2016-12-04T07:32:06.229Z,42.74
2016-12-04T07:33:05.954Z,42.74
2016-12-04T07:34:06.280Z,43.03
2016-12-04T07:35:06.011Z,42.93
2016-12-04T07:36:06.348Z,43.13
2016-12-04T07:37:06.366Z,42.93
2016-12-04T07:38:06.393Z,42.65
2016-12-04T07:39:06.422Z,43.13
2016-12-04T07:40:06.455Z,42.74
2016-12-04T07:41:06.167Z,42.93
2016-12-04T07:42:06.504Z,42.84
2016-12-04T07:43:06.221Z,42.93
2016-12-04T07:44:06.262Z,43.03
2016-12-04T07:45:06.270Z,42.93
2016-12-04T07:46:06.299Z,43.13
2016-12-04T07:47:06.643Z,43.23
2016-12-04T07:48:06.657Z,42.74
2016-12-04T07:49:06.689Z,42.93
2016-12-04T07:50:06.713Z,43.23
2016-12-04T07:51:06.439Z,43.13
2016-12-04T07:52:06.467Z,43.13
2016-12-04T07:53:06.792Z,43.13
2016-12-04T07:54:06.513Z,43.13
2016-12-04T07:55:06.545Z,42.93
2016-12-04T07:56:06.573Z,43.13
2016-12-04T07:57:06.903Z,43.13
2016-12-04T07:58:06.940Z,43.23
2016-12-04T07:59:06.952Z,43.13
2016-12-04T08:00:06.683Z,43.23
2016-12-04T08:01:06.714Z,43.03
2016-12-04T08:02:07.025Z,43.23
2016-12-04T08:03:06.759Z,43.13
2016-12-04T08:04:06.783Z,43.13
2016-12-04T08:05:06.817Z,43.13
2016-12-04T08:06:07.145Z,43.23
2016-12-04T08:07:06.878Z,43.13
2016-12-04T08:08:07.215Z,42.36
2016-12-04T08:09:06.924Z,43.23
2016-12-04T08:10:06.945Z,43.23
2016-12-04T08:11:06.973Z,42.46
2016-12-04T08:12:07.021Z,42.65
2016-12-04T08:13:07.026Z,43.23
2016-12-04T08:14:07.063Z,42.46
2016-12-04T08:15:07.391Z,43.23
2016-12-04T08:16:07.114Z,43.13
2016-12-04T08:17:07.442Z,42.36
2016-12-04T08:18:07.163Z,42.55
2016-12-04T08:19:07.504Z,42.07
2016-12-04T08:20:07.516Z,42.46
2016-12-04T08:21:07.249Z,42.36
2016-12-04T08:22:07.269Z,42.05
2016-12-04T08:23:07.604Z,42.46
2016-12-04T08:24:07.335Z,42.46
2016-12-04T08:25:07.356Z,42.07
2016-12-04T08:26:07.396Z,42.36
2016-12-04T08:27:07.713Z,41.97
2016-12-04T08:28:07.430Z,42.07
2016-12-04T08:29:07.770Z,41.59
2016-12-04T08:30:07.800Z,41.97
2016-12-04T08:31:07.516Z,41.3
2016-12-04T08:32:07.545Z,41.01
2016-12-04T08:33:07.574Z,40.63
2016-12-04T08:34:07.905Z,39.76
2016-12-04T08:35:07.928Z,40.05
2016-12-04T08:36:07.649Z,39.18
2016-12-04T08:37:07.977Z,39.56
2016-12-04T08:38:07.712Z,38.51
2016-12-04T08:39:07.739Z,39.28
2016-12-04T08:40:07.752Z,39.47
2016-12-04T08:41:08.088Z,39.37
2016-12-04T08:42:07.821Z,40.14
2016-12-04T08:43:08.150Z,39.37
2016-12-04T08:44:08.195Z,38.51
2016-12-04T08:45:08.201Z,39.37
2016-12-04T08:46:08.239Z,39.37
2016-12-04T08:47:07.945Z,39.95
2016-12-04T08:48:08.286Z,39.28
2016-12-04T08:49:08.011Z,39.95
2016-12-04T08:50:08.039Z,39.09
2016-12-04T08:51:08.369Z,39.47
2016-12-04T08:52:08.094Z,39.47
2016-12-04T08:53:08.114Z,39.37
2016-12-04T08:54:08.147Z,38.7
2016-12-04T08:55:08.472Z,39.28
2016-12-04T08:56:08.188Z,39.47
2016-12-04T08:57:08.530Z,39.28
2016-12-04T08:58:08.246Z,39.28
2016-12-04T08:59:08.283Z,39.47
2016-12-04T09:00:08.311Z,39.95
2016-12-04T09:01:08.644Z,35.71
2016-12-04T09:02:08.361Z,38.79
2016-12-04T09:03:08.396Z,38.51
2016-12-04T09:04:08.723Z,38.89
2016-12-04T09:05:08.431Z,39.47
2016-12-04T09:06:08.468Z,39.37
2016-12-04T09:07:08.492Z,40.05
2016-12-04T09:08:08.520Z,39.86
2016-12-04T09:09:08.886Z,40.72
2016-12-04T09:10:08.891Z,39.09
2016-12-04T09:11:08.907Z,40.63
2016-12-04T09:12:08.639Z,41.11
2016-12-04T09:13:08.659Z,40.63
2016-12-04T09:14:08.687Z,40.91
2016-12-04T09:15:09.015Z,41.3
2016-12-04T09:16:09.039Z,41.2
2016-12-04T09:17:08.792Z,41.28
2016-12-04T09:18:08.782Z,41.3
2016-12-04T09:19:09.121Z,41.28
2016-12-04T09:20:09.146Z,41.2
2016-12-04T09:21:09.169Z,41.38
2016-12-04T09:22:08.897Z,40.99
2016-12-04T09:23:09.236Z,41.28
2016-12-04T09:24:08.955Z,41.28
2016-12-04T09:25:08.982Z,41.38
2016-12-04T09:26:09.310Z,42.05
2016-12-04T09:27:09.331Z,42.05
2016-12-04T09:28:09.061Z,42.16
2016-12-04T09:29:09.388Z,41.86
2016-12-04T09:30:09.116Z,42.14
2016-12-04T09:31:09.446Z,42.07
2016-12-04T09:32:09.170Z,41.95
2016-12-04T09:33:09.499Z,41.86
2016-12-04T09:34:09.237Z,41.66
2016-12-04T09:35:09.253Z,41.66
2016-12-04T09:36:09.273Z,42.33
2016-12-04T09:37:09.606Z,42.46
2016-12-04T09:38:09.636Z,41.95
2016-12-04T09:39:09.351Z,42.05
2016-12-04T09:40:09.688Z,42.05
2016-12-04T09:41:09.721Z,42.36
2016-12-04T09:42:09.445Z,42.43
2016-12-04T09:43:09.463Z,41.88
2016-12-04T09:44:09.491Z,41.95
2016-12-04T09:45:09.512Z,42.46
2016-12-04T09:46:09.557Z,42.46
2016-12-04T09:47:09.870Z,43.03
2016-12-04T09:48:09.901Z,43.03
2016-12-04T09:49:09.927Z,42.93
2016-12-04T09:50:09.971Z,42.36
2016-12-04T09:51:09.681Z,43.13
2016-12-04T09:52:10.012Z,43.13
2016-12-04T09:53:09.735Z,43.23
2016-12-04T09:54:09.763Z,43.61
2016-12-04T09:55:10.088Z,43.61
2016-12-04T09:56:09.821Z,43.51
2016-12-04T09:57:09.860Z,43.71
2016-12-04T09:58:10.175Z,43.9
2016-12-04T09:59:09.890Z,43.99
2016-12-04T10:00:10.228Z,43.8
2016-12-04T10:01:09.951Z,43.8
2016-12-04T10:02:09.973Z,43.99
2016-12-04T10:03:10.305Z,43.51
2016-12-04T10:04:10.330Z,43.9
2016-12-04T10:05:10.359Z,44.28
2016-12-04T10:06:10.388Z,44.76
2016-12-04T10:07:10.412Z,45.25
2016-12-04T10:08:10.445Z,46.11
2016-12-04T10:09:10.463Z,45.83
2016-12-04T10:10:10.204Z,46.31
2016-12-04T10:11:10.219Z,46.21
2016-12-04T10:12:10.548Z,46.01
2016-12-04T10:13:10.577Z,45.83
2016-12-04T10:14:10.301Z,46.01
2016-12-04T10:15:10.331Z,45.53
2016-12-04T10:16:10.662Z,45.73
2016-12-04T10:17:10.688Z,45.92
2016-12-04T10:18:10.417Z,45.15
2016-12-04T10:19:10.740Z,45.34
2016-12-04T10:20:10.773Z,45.25
2016-12-04T10:21:10.798Z,45.27
2016-12-04T10:22:10.826Z,45.46
2016-12-04T10:23:10.845Z,45.15
2016-12-04T10:24:10.569Z,45.17
2016-12-04T10:25:10.604Z,44.31
2016-12-04T10:26:10.623Z,44.69
2016-12-04T10:27:10.955Z,44.59
2016-12-04T10:28:10.680Z,44.49
2016-12-04T10:29:10.700Z,44.69
2016-12-04T10:30:10.738Z,44.89
2016-12-04T10:31:11.062Z,44.69
2016-12-04T10:32:10.799Z,44.4
2016-12-04T10:33:11.119Z,44.21
2016-12-04T10:34:10.858Z,44.11
2016-12-04T10:35:10.865Z,44.02
2016-12-04T10:36:10.890Z,44.31
2016-12-04T10:37:11.223Z,44.49
2016-12-04T10:38:10.957Z,44.31
2016-12-04T10:39:10.976Z,44.04
2016-12-04T10:40:11.006Z,43.82
2016-12-04T10:41:11.034Z,43.73
2016-12-04T10:42:11.075Z,43.92
2016-12-04T10:43:11.087Z,43.63
2016-12-04T10:44:11.112Z,43.82
2016-12-04T10:45:11.145Z,43.85
2016-12-04T10:46:11.181Z,43.85
2016-12-04T10:47:11.190Z,44.11
2016-12-04T10:48:11.542Z,43.92
2016-12-04T10:49:11.556Z,43.94
2016-12-04T10:50:11.284Z,43.82
2016-12-04T10:51:11.301Z,43.85
2016-12-04T10:52:11.647Z,43.55
2016-12-04T10:53:11.663Z,43.55
2016-12-04T10:54:11.708Z,43.55
2016-12-04T10:55:11.408Z,43.73
2016-12-04T10:56:11.438Z,43.73
2016-12-04T10:57:11.466Z,43.44
2016-12-04T10:58:11.815Z,43.54
2016-12-04T10:59:11.827Z,43.54
2016-12-04T11:00:11.552Z,43.65
2016-12-04T11:01:11.585Z,43.73
2016-12-04T11:02:11.609Z,43.63
2016-12-04T11:03:11.636Z,43.73
2016-12-04T11:04:11.655Z,43.73
2016-12-04T11:05:11.687Z,43.44
2016-12-04T11:06:11.732Z,44.04
2016-12-04T11:07:12.042Z,43.82
2016-12-04T11:08:11.774Z,44.04
2016-12-04T11:09:12.095Z,44.02
2016-12-04T11:10:12.139Z,44.11
2016-12-04T11:11:11.849Z,43.73
2016-12-04T11:12:11.899Z,44.11
2016-12-04T11:13:12.216Z,43.73
2016-12-04T11:14:12.247Z,43.65
2016-12-04T11:15:11.967Z,43.92
2016-12-04T11:16:11.992Z,43.63
2016-12-04T11:17:12.312Z,43.73
2016-12-04T11:18:12.053Z,43.46
2016-12-04T11:19:12.049Z,43.44
2016-12-04T11:20:12.203Z,43.75
2016-12-04T11:21:12.124Z,43.85
2016-12-04T11:22:12.457Z,43.94
2016-12-04T11:23:12.181Z,43.85
2016-12-04T11:24:12.214Z,43.75
2016-12-04T11:25:12.264Z,43.85
2016-12-04T11:26:12.276Z,43.85
2016-12-04T11:27:12.293Z,44.13
2016-12-04T11:28:12.617Z,43.85
2016-12-04T11:29:12.349Z,44.13
2016-12-04T11:30:12.377Z,43.75
2016-12-04T11:31:12.400Z,43.75
2016-12-04T11:32:13.300Z,43.75
2016-12-04T11:33:13.026Z,44.13
2016-12-04T11:34:13.403Z,44.13
2016-12-04T11:35:13.108Z,43.75
2016-12-04T11:36:13.410Z,43.55
2016-12-04T11:37:12.739Z,43.27
2016-12-04T11:38:13.480Z,43.55
2016-12-04T11:39:13.216Z,43.55
2016-12-04T11:40:13.481Z,43.65
2016-12-04T11:41:13.490Z,43.65
2016-12-04T11:42:13.599Z,43.75
2016-12-04T11:43:13.034Z,43.85
2016-12-04T11:44:13.063Z,43.65
2016-12-04T11:45:12.782Z,43.37
2016-12-04T11:46:12.819Z,43.46
2016-12-04T11:47:13.143Z,43.27
2016-12-04T11:48:12.869Z,43.27
2016-12-04T11:49:12.901Z,43.07
2016-12-04T11:50:12.927Z,43.07
2016-12-04T11:51:12.957Z,42.97
2016-12-04T11:52:12.995Z,42.97
2016-12-04T11:53:13.011Z,43.37
2016-12-04T11:54:13.340Z,43.46
2016-12-04T11:55:13.064Z,42.97
2016-12-04T11:56:13.094Z,43.55
2016-12-04T11:57:13.124Z,43.07
2016-12-04T11:58:13.152Z,43.07
2016-12-04T11:59:13.493Z,43.17
2016-12-04T12:00:13.207Z,42.88
2016-12-04T12:01:13.225Z,42.88
2016-12-04T12:02:13.558Z,43.17
2016-12-04T12:03:13.279Z,43.24
2016-12-04T12:04:13.616Z,43.85
2016-12-04T12:05:13.336Z,43.27
2016-12-04T12:06:13.373Z,43.07
2016-12-04T12:07:13.718Z,42.97
2016-12-04T12:08:13.727Z,42.97
2016-12-04T12:09:13.751Z,42.49
2016-12-04T12:10:13.780Z,42.88
2016-12-04T12:11:13.810Z,42.49
2016-12-04T12:12:13.857Z,43.37
2016-12-04T12:13:13.550Z,43.17
2016-12-04T12:14:13.583Z,42.69
2016-12-04T12:15:13.919Z,42.88
2016-12-04T12:16:13.640Z,42.88
2016-12-04T12:17:13.976Z,42.59
2016-12-04T12:18:13.701Z,42.79
2016-12-04T12:19:13.723Z,42.88
2016-12-04T12:20:13.750Z,42.79
2016-12-04T12:21:13.776Z,43.07
2016-12-04T12:22:14.117Z,42.97
2016-12-04T12:23:13.821Z,42.97
2016-12-04T12:24:14.164Z,43.07
2016-12-04T12:25:13.891Z,43.07
2016-12-04T12:26:13.912Z,43.07
2016-12-04T12:27:13.940Z,42.88
2016-12-04T12:28:28.886Z,42.79
2016-12-04T12:29:14.318Z,42.69
2016-12-04T12:30:14.313Z,43.07
2016-12-04T12:31:14.340Z,42.88
2016-12-04T12:32:14.376Z,42.88
2016-12-04T12:33:14.105Z,43.07
2016-12-04T12:34:14.434Z,42.97
2016-12-04T12:35:14.163Z,42.97
2016-12-04T12:36:14.183Z,42.97
2016-12-04T12:37:14.220Z,42.69
2016-12-04T12:38:14.548Z,42.88
2016-12-04T12:39:14.575Z,42.69
2016-12-04T12:40:14.605Z,42.97
2016-12-04T12:41:14.326Z,42.69
2016-12-04T12:42:14.659Z,42.88
2016-12-04T12:43:14.690Z,43.27
2016-12-04T12:44:14.709Z,43.55
2016-12-04T12:45:14.736Z,42.79
2016-12-04T12:46:14.465Z,42.97
2016-12-04T12:47:14.490Z,42.49
2016-12-04T12:48:14.522Z,42.57
2016-12-04T12:49:14.544Z,42.59
2016-12-04T12:50:14.580Z,42.69
2016-12-04T12:51:14.904Z,42.97
2016-12-04T12:52:14.934Z,42.49
2016-12-04T12:53:14.958Z,43.27
2016-12-04T12:54:14.995Z,42.69
2016-12-04T12:55:14.712Z,43.27